createdAt,value
2019-03-25T00:01:02.685Z,53.78
2019-03-25T00:04:32.825Z,53.87
2019-03-25T00:08:03.014Z,53.94
2019-03-25T00:11:33.213Z,53.98
2019-03-25T00:15:03.812Z,54.05
2019-03-25T00:18:33.912Z,54.1
2019-03-25T00:22:03.966Z,54.16
2019-03-25T00:25:34.094Z,54.2
2019-03-25T00:29:04.252Z,54.25
2019-03-25T00:32:34.368Z,54.32
2019-03-25T00:36:04.518Z,54.36
2019-03-25T00:39:34.588Z,54.43
2019-03-25T00:43:04.637Z,54.48
2019-03-25T00:46:34.786Z,54.54
2019-03-25T00:50:05.488Z,54.57
2019-03-25T00:53:35.545Z,54.63
2019-03-25T00:57:05.657Z,54.69
2019-03-25T01:00:36.761Z,54.73
2019-03-25T01:04:07.053Z,54.79
2019-03-25T01:07:37.252Z,54.85
2019-03-25T01:11:07.446Z,54.89
2019-03-25T01:14:37.584Z,54.94
2019-03-25T01:18:16.329Z,54.97
2019-03-25T01:21:47.560Z,55.01
2019-03-25T01:25:17.731Z,55.06
2019-03-25T01:28:47.828Z,55.07
2019-03-25T01:32:17.906Z,55.1
2019-03-25T01:35:47.947Z,55.12
2019-03-25T01:39:18.067Z,55.14
2019-03-25T01:42:48.166Z,55.14
2019-03-25T01:46:18.197Z,55.15
2019-03-25T01:49:48.474Z,55.15
2019-03-25T01:53:18.496Z,55.13
2019-03-25T01:56:48.723Z,55.12
2019-03-25T02:00:16.923Z,55.09
2019-03-25T02:03:48.002Z,55.07
2019-03-25T02:07:18.091Z,55.05
2019-03-25T02:10:48.221Z,55.03
2019-03-25T02:14:18.280Z,55
2019-03-25T02:17:48.335Z,54.99
2019-03-25T02:21:18.449Z,54.95
2019-03-25T02:24:48.629Z,54.94
2019-03-25T02:28:18.698Z,54.92
2019-03-25T02:31:48.820Z,54.9
2019-03-25T02:35:18.815Z,54.87
2019-03-25T02:38:48.966Z,54.85
2019-03-25T02:42:19.026Z,54.79
2019-03-25T02:45:49.205Z,54.78
2019-03-25T02:49:19.225Z,54.75
2019-03-25T02:52:49.332Z,54.71
2019-03-25T02:56:19.533Z,54.67
2019-03-25T02:59:49.692Z,54.64
2019-03-25T03:03:19.792Z,54.63
2019-03-25T03:06:50.843Z,54.6
2019-03-25T03:10:21.050Z,54.56
2019-03-25T03:13:51.165Z,54.53
2019-03-25T03:17:21.459Z,54.49
2019-03-25T03:20:51.599Z,54.45
2019-03-25T03:24:21.637Z,54.4
2019-03-25T03:27:51.818Z,54.38
2019-03-25T03:31:21.942Z,54.33
2019-03-25T03:34:52.092Z,54.3
2019-03-25T03:38:22.219Z,54.25
2019-03-25T03:41:52.365Z,54.22
2019-03-25T03:45:22.428Z,54.19
2019-03-25T03:48:52.573Z,54.16
2019-03-25T03:52:22.823Z,54.13
2019-03-25T03:55:53.020Z,54.11
2019-03-25T03:59:23.064Z,54.06
2019-03-25T04:00:26.102Z,54.05
2019-03-25T04:03:56.179Z,54.01
2019-03-25T04:07:26.321Z,53.97
2019-03-25T04:10:56.459Z,53.95
2019-03-25T04:14:26.521Z,53.91
2019-03-25T04:17:57.261Z,53.91
2019-03-25T04:21:27.378Z,53.88
2019-03-25T04:24:57.467Z,53.87
2019-03-25T04:28:27.588Z,53.86
2019-03-25T04:31:57.735Z,53.85
2019-03-25T04:35:27.840Z,53.85
2019-03-25T04:38:58.018Z,53.85
2019-03-25T04:42:28.135Z,53.86
2019-03-25T04:45:58.202Z,53.86
2019-03-25T04:49:28.273Z,53.86
2019-03-25T04:52:58.371Z,53.87
2019-03-25T04:56:39.109Z,53.9
2019-03-25T05:00:11.174Z,53.91
2019-03-25T05:03:41.279Z,53.91
2019-03-25T05:07:11.474Z,53.91
2019-03-25T05:10:42.577Z,53.91
2019-03-25T05:14:12.587Z,53.95
2019-03-25T05:17:42.736Z,53.97
2019-03-25T05:21:12.836Z,54
2019-03-25T05:24:42.926Z,54.01
2019-03-25T05:28:12.995Z,54.03
2019-03-25T05:31:43.094Z,54.05
2019-03-25T05:35:13.153Z,54.07
2019-03-25T05:38:43.265Z,54.09
2019-03-25T05:42:13.452Z,54.11
2019-03-25T05:45:43.511Z,54.12
2019-03-25T05:49:13.650Z,54.12
2019-03-25T05:52:43.743Z,54.14
2019-03-25T05:56:13.863Z,54.14
2019-03-25T05:59:43.972Z,54.15
2019-03-25T06:00:17.403Z,54.15
2019-03-25T06:03:47.469Z,54.18
2019-03-25T06:07:17.569Z,54.21
2019-03-25T06:10:48.648Z,54.24
2019-03-25T06:14:18.729Z,54.23
2019-03-25T06:17:49.047Z,54.24
2019-03-25T06:21:19.116Z,54.24
2019-03-25T06:24:49.336Z,54.25
2019-03-25T06:28:19.403Z,54.27
2019-03-25T06:31:49.525Z,54.28
2019-03-25T06:35:19.586Z,54.3
2019-03-25T06:38:49.723Z,54.31
2019-03-25T06:42:19.783Z,54.33
2019-03-25T06:45:50.062Z,54.34
2019-03-25T06:49:20.152Z,54.36
2019-03-25T06:52:50.511Z,54.35
2019-03-25T06:56:20.662Z,54.36
2019-03-25T06:59:50.763Z,54.37
2019-03-25T07:03:20.860Z,54.37
2019-03-25T07:06:50.879Z,54.38
2019-03-25T07:10:29.889Z,54.38
2019-03-25T07:14:01.027Z,54.38
2019-03-25T07:17:31.001Z,54.38
2019-03-25T07:21:01.140Z,54.39
2019-03-25T07:32:38.576Z,54.36
2019-03-25T07:36:08.629Z,54.36
2019-03-25T07:39:38.838Z,54.35
2019-03-25T07:43:08.885Z,54.32
2019-03-25T07:46:39.023Z,54.29
2019-03-25T07:50:09.666Z,54.25
2019-03-25T07:53:39.747Z,54.22
2019-03-25T07:57:11.746Z,54.18
2019-03-25T08:00:16.518Z,54.15
2019-03-25T08:03:46.607Z,54.1
2019-03-25T08:07:16.677Z,54.07
2019-03-25T08:10:46.718Z,54
2019-03-25T08:14:17.813Z,53.94
2019-03-25T08:17:47.980Z,53.87
2019-03-25T08:21:18.200Z,53.82
2019-03-25T08:24:48.369Z,53.75
2019-03-25T08:28:18.560Z,53.69
2019-03-25T08:31:48.671Z,53.61
2019-03-25T08:35:18.781Z,53.55
2019-03-25T08:38:48.871Z,53.49
2019-03-25T08:42:19.159Z,53.43
2019-03-25T08:45:49.267Z,53.36
2019-03-25T08:49:19.447Z,53.28
2019-03-25T08:52:49.447Z,53.24
2019-03-25T08:56:19.575Z,53.17
2019-03-25T08:59:49.695Z,53.1
2019-03-25T09:03:19.776Z,53.06
2019-03-25T09:06:49.895Z,53
2019-03-25T09:10:20.024Z,52.94
2019-03-25T09:13:50.054Z,52.86
2019-03-25T09:17:21.173Z,52.77
2019-03-25T09:20:51.344Z,52.71
2019-03-25T09:24:21.523Z,52.61
2019-03-25T09:27:51.722Z,52.53
2019-03-25T09:31:22.277Z,52.44
2019-03-25T09:34:52.492Z,52.36
2019-03-25T09:38:22.602Z,52.27
2019-03-25T09:41:52.683Z,52.17
2019-03-25T09:45:22.896Z,52.06
2019-03-25T09:48:52.961Z,51.94
2019-03-25T09:52:23.057Z,51.83
2019-03-25T09:55:53.290Z,51.66
2019-03-25T09:59:23.467Z,51.51
2019-03-25T10:00:28.820Z,51.48
2019-03-25T10:03:59.009Z,51.32
2019-03-25T10:07:29.230Z,51.16
2019-03-25T10:10:59.353Z,50.97
2019-03-25T10:14:29.509Z,50.77
2019-03-25T10:17:59.728Z,50.58
2019-03-25T10:21:29.899Z,50.37
2019-03-25T10:25:00.029Z,50.17
2019-03-25T10:28:30.318Z,49.95
2019-03-25T10:32:00.488Z,49.73
2019-03-25T10:35:30.537Z,49.52
2019-03-25T10:39:00.617Z,49.3
2019-03-25T10:42:30.587Z,49.08
2019-03-25T10:46:00.777Z,48.83
2019-03-25T10:49:30.937Z,48.57
2019-03-25T10:53:01.026Z,48.32
2019-03-25T10:56:31.166Z,48.03
2019-03-25T11:00:01.316Z,47.76
2019-03-25T11:03:31.377Z,47.44
2019-03-25T11:07:01.490Z,47.15
2019-03-25T11:10:31.716Z,46.81
2019-03-25T11:14:01.775Z,46.49
2019-03-25T11:17:32.085Z,46.16
2019-03-25T11:21:03.285Z,45.84
2019-03-25T11:24:33.446Z,45.51
2019-03-25T11:28:03.499Z,45.19
2019-03-25T11:31:33.547Z,44.85
2019-03-25T11:35:05.704Z,44.56
2019-03-25T11:38:35.933Z,44.23
2019-03-25T11:42:06.194Z,43.92
2019-03-25T11:45:36.354Z,43.61
2019-03-25T11:49:06.624Z,43.3
2019-03-25T11:52:36.855Z,43
2019-03-25T11:56:07.109Z,42.69
2019-03-25T11:59:37.284Z,42.38
2019-03-25T12:00:16.668Z,42.31
2019-03-25T12:03:46.734Z,41.98
2019-03-25T12:07:16.984Z,41.66
2019-03-25T12:10:47.055Z,41.33
2019-03-25T12:14:17.324Z,41.01
2019-03-25T12:17:47.344Z,40.68
2019-03-25T12:21:18.604Z,40.39
2019-03-25T12:24:48.724Z,40.07
2019-03-25T12:28:20.750Z,39.76
2019-03-25T12:31:51.086Z,39.42
2019-03-25T12:35:21.251Z,39.08
2019-03-25T12:38:51.456Z,38.72
2019-03-25T12:42:21.644Z,38.38
2019-03-25T12:45:51.757Z,38.03
2019-03-25T12:49:21.816Z,37.7
2019-03-25T12:52:51.954Z,37.34
2019-03-25T12:56:22.264Z,37
2019-03-25T12:59:52.334Z,36.65
2019-03-25T13:03:22.474Z,36.32
2019-03-25T13:06:52.594Z,36
2019-03-25T13:10:22.834Z,35.68
2019-03-25T13:13:52.943Z,35.41
2019-03-25T13:17:22.995Z,35.12
2019-03-25T13:20:53.207Z,34.84
2019-03-25T13:24:23.474Z,34.58
2019-03-25T13:27:53.553Z,34.3
2019-03-25T13:31:23.696Z,33.99
2019-03-25T13:34:53.804Z,33.72
2019-03-25T13:38:23.895Z,33.47
2019-03-25T13:41:54.099Z,33.21
2019-03-25T13:45:24.325Z,32.98
2019-03-25T13:48:55.190Z,32.74
2019-03-25T13:52:25.495Z,32.51
2019-03-25T13:55:55.564Z,32.28
2019-03-25T13:59:27.511Z,32.01
2019-03-25T14:00:33.304Z,31.97
2019-03-25T14:04:03.395Z,31.72
2019-03-25T14:07:33.585Z,31.47
2019-03-25T14:11:03.825Z,31.22
2019-03-25T14:14:33.885Z,30.97
2019-03-25T14:18:04.356Z,30.74
2019-03-25T14:21:34.472Z,30.49
2019-03-25T14:25:05.815Z,30.26
2019-03-25T14:28:35.925Z,30.06
2019-03-25T14:32:06.056Z,29.83
2019-03-25T14:35:36.196Z,29.6
2019-03-25T14:39:06.516Z,29.38
2019-03-25T14:42:36.657Z,29.16
2019-03-25T14:46:06.757Z,28.91
2019-03-25T14:49:37.086Z,28.7
2019-03-25T14:53:07.196Z,28.46
2019-03-25T14:56:37.346Z,28.19
2019-03-25T15:00:09.087Z,27.96
2019-03-25T15:03:39.227Z,27.72
2019-03-25T15:07:09.318Z,27.45
2019-03-25T15:10:39.457Z,27.25
2019-03-25T15:14:09.557Z,27.01
2019-03-25T15:17:39.678Z,26.79
2019-03-25T15:21:09.867Z,26.58
2019-03-25T15:24:39.999Z,26.35
2019-03-25T15:28:11.131Z,26.14
2019-03-25T15:31:41.228Z,25.92
2019-03-25T15:35:11.498Z,25.73
2019-03-25T15:38:41.658Z,25.57
2019-03-25T15:42:11.828Z,25.4
2019-03-25T15:45:42.068Z,25.24
2019-03-25T15:49:12.260Z,25.08
2019-03-25T15:52:42.398Z,24.93
2019-03-25T15:56:12.458Z,24.8
2019-03-25T15:59:42.829Z,24.72
2019-03-25T16:00:19.120Z,24.68
2019-03-25T16:03:49.149Z,24.59
2019-03-25T16:07:19.378Z,24.49
2019-03-25T16:10:51.650Z,24.45
2019-03-25T16:14:22.060Z,24.39
2019-03-25T16:17:52.199Z,24.3
2019-03-25T16:21:22.282Z,24.27
2019-03-25T16:24:52.358Z,24.23
2019-03-25T16:28:24.188Z,24.21
2019-03-25T16:31:54.188Z,24.21
2019-03-25T16:35:24.251Z,24.22
2019-03-25T16:38:54.367Z,24.25
2019-03-25T16:42:24.577Z,24.28
2019-03-25T16:45:54.716Z,24.35
2019-03-25T16:49:24.801Z,24.41
2019-03-25T16:52:54.886Z,24.47
2019-03-25T16:56:25.126Z,24.57
2019-03-25T16:59:55.136Z,24.67
2019-03-25T17:03:25.376Z,24.77
2019-03-25T17:06:55.487Z,24.89
2019-03-25T17:10:25.675Z,25
2019-03-25T17:13:55.814Z,25.14
2019-03-25T17:17:25.991Z,25.26
2019-03-25T17:20:56.065Z,25.4
2019-03-25T17:24:26.174Z,25.54
2019-03-25T17:27:56.273Z,25.7
2019-03-25T17:31:27.303Z,25.86
2019-03-25T17:34:57.352Z,25.99
2019-03-25T17:38:27.482Z,26.15
2019-03-25T17:41:57.642Z,26.3
2019-03-25T17:45:27.901Z,26.51
2019-03-25T17:48:57.962Z,26.67
2019-03-25T17:52:28.204Z,26.88
2019-03-25T17:55:58.270Z,27.05
2019-03-25T17:59:28.249Z,27.26
2019-03-25T18:01:05.850Z,27.3
2019-03-25T18:04:35.961Z,27.56
2019-03-25T18:08:06.048Z,27.77
2019-03-25T18:11:36.248Z,28
2019-03-25T18:15:08.308Z,28.2
2019-03-25T18:18:38.347Z,28.41
2019-03-25T18:22:08.398Z,28.64
2019-03-25T18:25:38.577Z,28.84
2019-03-25T18:29:08.646Z,29.05
2019-03-25T18:32:39.655Z,29.29
2019-03-25T18:36:09.746Z,29.53
2019-03-25T18:39:39.925Z,29.77
2019-03-25T18:43:10.144Z,30
2019-03-25T18:46:40.230Z,30.26
2019-03-25T18:50:10.615Z,30.5
2019-03-25T18:53:40.853Z,30.77
2019-03-25T18:57:11.102Z,31.03
2019-03-25T19:00:41.395Z,31.29
2019-03-25T19:04:11.513Z,31.52
2019-03-25T19:07:43.347Z,31.78
2019-03-25T19:11:13.402Z,32.03
2019-03-25T19:14:43.553Z,32.28
2019-03-25T19:18:13.695Z,32.52
2019-03-25T19:21:43.796Z,32.78
2019-03-25T19:25:14.076Z,33.04
2019-03-25T19:28:44.163Z,33.28
2019-03-25T19:32:14.301Z,33.56
2019-03-25T19:35:44.620Z,33.82
2019-03-25T19:39:14.703Z,34.07
2019-03-25T19:42:44.818Z,34.32
2019-03-25T19:46:15.012Z,34.58
2019-03-25T19:49:45.106Z,34.84
2019-03-25T19:53:19.262Z,35.09
2019-03-25T19:56:49.771Z,35.36
2019-03-25T20:00:35.656Z,35.59
2019-03-25T20:04:05.902Z,35.86
2019-03-25T20:07:36.235Z,36.14
2019-03-25T20:11:06.385Z,36.38
2019-03-25T20:14:36.503Z,36.63
2019-03-25T20:18:06.747Z,36.88
2019-03-25T20:21:36.815Z,37.13
2019-03-25T20:25:06.919Z,37.39
2019-03-25T20:28:37.029Z,37.64
2019-03-25T20:32:07.195Z,37.89
2019-03-25T20:35:37.319Z,38.14
2019-03-25T20:39:08.688Z,38.4
2019-03-25T20:42:38.857Z,38.61
2019-03-25T20:46:08.979Z,38.85
2019-03-25T20:49:39.175Z,39.11
2019-03-25T20:53:09.315Z,39.34
2019-03-25T20:56:39.487Z,39.59
2019-03-25T21:00:10.292Z,39.8
2019-03-25T21:03:40.345Z,40.05
2019-03-25T21:07:10.562Z,40.25
2019-03-25T21:10:40.729Z,40.51
2019-03-25T21:14:10.874Z,40.73
2019-03-25T21:17:41.154Z,40.97
2019-03-25T21:21:11.312Z,41.18
2019-03-25T21:24:41.347Z,41.39
2019-03-25T21:28:11.579Z,41.62
2019-03-25T21:31:41.678Z,41.84
2019-03-25T21:35:12.037Z,42.06
2019-03-25T21:38:42.226Z,42.26
2019-03-25T21:42:12.473Z,42.48
2019-03-25T21:45:42.610Z,42.68
2019-03-25T21:49:12.753Z,42.89
2019-03-25T21:52:42.798Z,43.1
2019-03-25T21:56:13.045Z,43.3
2019-03-25T21:59:43.171Z,43.5
2019-03-25T22:00:16.615Z,43.53
2019-03-25T22:03:46.870Z,43.76
2019-03-25T22:07:16.969Z,43.98
2019-03-25T22:10:47.080Z,44.17
2019-03-25T22:14:17.149Z,44.39
2019-03-25T22:17:47.198Z,44.61
2019-03-25T22:21:17.207Z,44.8
2019-03-25T22:24:47.316Z,44.99
2019-03-25T22:28:17.332Z,45.19
2019-03-25T22:31:47.464Z,45.39
2019-03-25T22:35:17.650Z,45.58
2019-03-25T22:38:47.704Z,45.78
2019-03-25T22:42:18.783Z,45.99
2019-03-25T22:45:48.813Z,46.19
2019-03-25T22:49:18.992Z,46.38
2019-03-25T22:52:49.081Z,46.57
2019-03-25T22:56:19.281Z,46.77
2019-03-25T22:59:49.430Z,46.96
2019-03-25T23:03:19.539Z,47.13
2019-03-25T23:06:49.729Z,47.32
2019-03-25T23:10:19.858Z,47.51
2019-03-25T23:13:50.178Z,47.7
2019-03-25T23:17:20.368Z,47.86
2019-03-25T23:20:50.529Z,48.05
2019-03-25T23:24:20.609Z,48.23
2019-03-25T23:27:50.883Z,48.39
2019-03-25T23:31:21.148Z,48.56
2019-03-25T23:34:51.367Z,48.73
2019-03-25T23:38:21.553Z,48.88
2019-03-25T23:41:51.700Z,49.02
2019-03-25T23:45:22.812Z,49.2
2019-03-25T23:48:52.965Z,49.34
2019-03-25T23:52:22.970Z,49.49
2019-03-25T23:55:53.020Z,49.63
2019-03-25T23:59:23.139Z,49.77
